createdAt,value
2022-09-01T00:00:02.433Z,16.62
2022-09-01T00:05:01.287Z,16.29
2022-09-01T00:10:01.752Z,16.13
2022-09-01T00:15:01.633Z,15.85
2022-09-01T00:20:01.409Z,15.67
2022-09-01T00:25:01.299Z,15.4
2022-09-01T00:30:01.673Z,15.25
2022-09-01T00:35:01.170Z,15.26
2022-09-01T00:40:01.387Z,15.28
2022-09-01T00:45:01.761Z,15.26
2022-09-01T00:50:01.320Z,15.12
2022-09-01T00:55:01.249Z,15
2022-09-01T01:00:01.383Z,14.79
2022-09-01T01:05:01.926Z,14.79
2022-09-01T01:10:01.174Z,14.58
2022-09-01T01:15:01.987Z,14.6
2022-09-01T01:20:02.023Z,14.56
2022-09-01T01:25:01.857Z,14.7
2022-09-01T01:30:01.630Z,14.6
2022-09-01T01:35:01.895Z,14.65
2022-09-01T01:40:01.177Z,14.66
2022-09-01T01:45:01.393Z,14.68
2022-09-01T01:50:01.327Z,14.88
2022-09-01T01:55:05.091Z,14.87
2022-09-01T02:00:01.889Z,14.77
2022-09-01T02:05:01.705Z,14.66
2022-09-01T02:10:01.826Z,14.43
2022-09-01T02:15:01.700Z,14.27
2022-09-01T02:20:01.481Z,14.15
2022-09-01T02:25:01.488Z,14.06
2022-09-01T02:30:02.141Z,13.95
2022-09-01T02:35:01.798Z,13.84
2022-09-01T02:40:01.664Z,13.77
2022-09-01T02:45:02.665Z,13.68
2022-09-01T02:50:02.115Z,13.66
2022-09-01T02:55:01.916Z,13.56
2022-09-01T03:00:01.167Z,13.5
2022-09-01T03:05:01.505Z,13.45
2022-09-01T03:10:01.195Z,13.36
2022-09-01T03:15:01.942Z,13.27
2022-09-01T03:20:01.283Z,13.24
2022-09-01T03:25:01.225Z,13.34
2022-09-01T03:30:01.695Z,13.23
2022-09-01T03:35:01.206Z,13.15
2022-09-01T03:40:01.351Z,13.07
2022-09-01T03:45:01.239Z,12.92
2022-09-01T03:50:01.691Z,12.87
2022-09-01T03:55:01.802Z,12.79
2022-09-01T04:00:01.373Z,12.77
2022-09-01T04:05:02.727Z,12.62
2022-09-01T04:10:01.579Z,12.55
2022-09-01T04:15:01.465Z,12.52
2022-09-01T04:20:02.044Z,12.45
2022-09-01T04:25:02.043Z,12.38
2022-09-01T04:30:01.351Z,12.34
2022-09-01T04:35:01.812Z,12.31
2022-09-01T04:40:01.352Z,12.26
2022-09-01T04:45:09.906Z,12.38
2022-09-01T04:50:01.982Z,12.47
2022-09-01T04:55:01.578Z,12.45
2022-09-01T05:00:01.898Z,12.28
2022-09-01T05:05:01.189Z,12.19
2022-09-01T05:10:02.027Z,12.23
2022-09-01T05:15:01.995Z,12.41
2022-09-01T05:20:01.515Z,12.28
2022-09-01T05:25:01.920Z,12.1
2022-09-01T05:30:01.230Z,12.12
2022-09-01T05:35:01.270Z,12.15
2022-09-01T05:40:01.921Z,12.42
2022-09-01T05:45:01.594Z,12.43
2022-09-01T05:50:01.617Z,12.76
2022-09-01T05:55:01.201Z,12.72
2022-09-01T06:00:02.126Z,12.95
2022-09-01T06:05:01.526Z,13.27
2022-09-01T06:10:01.537Z,13.56
2022-09-01T06:15:01.247Z,13.6
2022-09-01T06:20:01.933Z,13.71
2022-09-01T06:25:03.107Z,13.98
2022-09-01T06:30:01.702Z,14.38
2022-09-01T06:35:01.932Z,14.58
2022-09-01T06:40:01.992Z,14.72
2022-09-01T06:45:02.055Z,14.97
2022-09-01T06:50:01.211Z,15.46
2022-09-01T06:55:07.129Z,15.82
2022-09-01T07:00:01.679Z,16.14
2022-09-01T07:05:02.072Z,16.32
2022-09-01T07:10:18.623Z,16.63
2022-09-01T07:16:37.357Z,17.09
2022-09-01T07:20:23.810Z,17.55
2022-09-01T07:25:13.660Z,17.82
2022-09-01T07:30:02.025Z,18.13
2022-09-01T07:35:01.832Z,18.3
2022-09-01T07:43:10.037Z,18.62
2022-09-01T07:45:26.155Z,19.07
2022-09-01T07:50:24.827Z,19.35
2022-09-01T07:55:01.478Z,19.69
2022-09-01T08:00:01.649Z,20.03
2022-09-01T08:05:01.961Z,20.28
2022-09-01T08:10:01.866Z,20.77
2022-09-01T08:15:41.596Z,20.86
2022-09-01T08:20:03.201Z,21.27
2022-09-01T08:25:01.834Z,21.03
2022-09-01T08:30:01.908Z,21.02
2022-09-01T08:35:02.355Z,20.6
2022-09-01T08:40:01.942Z,20.32
2022-09-01T08:45:02.001Z,20.58
2022-09-01T08:50:05.827Z,20.9
2022-09-01T08:55:01.917Z,21.37
2022-09-01T09:00:01.945Z,21.46
2022-09-01T09:05:01.623Z,21.6
2022-09-01T09:10:01.912Z,21.5
2022-09-01T09:15:02.196Z,21.35
2022-09-01T09:20:02.273Z,21.33
2022-09-01T09:25:02.798Z,21.35
2022-09-01T09:30:07.587Z,21.25
2022-09-01T09:35:02.028Z,21.81
2022-09-01T09:40:01.963Z,22.08
2022-09-01T09:45:02.007Z,22.09
2022-09-01T09:50:01.330Z,22.22
2022-09-01T09:55:01.804Z,22.4
2022-09-01T10:00:02.066Z,22.57
2022-09-01T10:05:02.556Z,21.98
2022-09-01T10:10:02.811Z,22.23
2022-09-01T10:15:04.674Z,22.37
2022-09-01T10:20:01.761Z,22.52
2022-09-01T10:25:01.482Z,22.6
2022-09-01T10:30:19.204Z,22.71
2022-09-01T10:35:02.425Z,22.56
2022-09-01T10:40:03.055Z,22.62
2022-09-01T10:45:02.058Z,22.33
2022-09-01T10:50:07.483Z,22.47
2022-09-01T10:55:01.741Z,22.05
2022-09-01T11:00:01.338Z,22.05
2022-09-01T11:05:02.392Z,21.84
2022-09-01T11:10:11.480Z,21.72
2022-09-01T11:15:01.975Z,21.93
2022-09-01T11:20:01.707Z,22.17
2022-09-01T11:25:11.763Z,22.17
2022-09-01T11:30:02.142Z,21.92
2022-09-01T11:35:01.696Z,21.93
2022-09-01T11:40:01.377Z,21.92
2022-09-01T11:45:01.265Z,21.99
2022-09-01T11:50:01.608Z,22.01
2022-09-01T11:55:01.675Z,22.43
2022-09-01T12:00:01.535Z,22.41
2022-09-01T12:05:01.794Z,22.33
2022-09-01T12:10:01.896Z,22.93
2022-09-01T12:15:06.290Z,23
2022-09-01T12:20:01.991Z,22.65
2022-09-01T12:25:01.629Z,22.55
2022-09-01T12:30:01.699Z,22.84
2022-09-01T12:35:07.203Z,23.18
2022-09-01T12:40:01.319Z,23.25
2022-09-01T12:45:02.029Z,23.51
2022-09-01T12:50:03.415Z,23.81
2022-09-01T12:55:01.518Z,23.96
2022-09-01T13:00:01.569Z,24.33
2022-09-01T13:05:01.694Z,24.12
2022-09-01T13:10:01.299Z,24.03
2022-09-01T13:15:01.624Z,24.17
2022-09-01T13:20:02.206Z,23.88
2022-09-01T13:25:01.364Z,23.98
2022-09-01T13:30:01.814Z,24.01
2022-09-01T13:35:01.957Z,23.98
2022-09-01T13:40:01.845Z,24.21
2022-09-01T13:45:01.884Z,24.3
2022-09-01T13:50:10.052Z,24.53
2022-09-01T13:55:01.262Z,24.26
2022-09-01T14:00:01.566Z,24.33
2022-09-01T14:05:01.475Z,23.74
2022-09-01T14:10:01.744Z,23.6
2022-09-01T14:15:17.116Z,23.46
2022-09-01T14:20:02.109Z,23.44
2022-09-01T14:25:01.988Z,23.68
2022-09-01T14:30:01.541Z,23.96
2022-09-01T14:35:01.841Z,23.82
2022-09-01T14:40:02.037Z,23.65
2022-09-01T14:45:02.102Z,23.46
2022-09-01T14:50:02.108Z,23.42
2022-09-01T14:55:02.003Z,23.39
2022-09-01T15:00:01.283Z,23.53
2022-09-01T15:05:01.334Z,23.79
2022-09-01T15:10:02.007Z,23.94
2022-09-01T15:15:01.863Z,24.17
2022-09-01T15:20:01.186Z,24.27
2022-09-01T15:25:01.694Z,24.27
2022-09-01T15:30:01.347Z,24.09
2022-09-01T15:35:01.197Z,23.87
2022-09-01T15:40:02.104Z,23.83
2022-09-01T15:45:01.645Z,23.61
2022-09-01T15:50:01.749Z,23.47
2022-09-01T15:55:01.397Z,23.36
2022-09-01T16:00:01.887Z,23.3
2022-09-01T16:05:01.791Z,23.36
2022-09-01T16:10:01.962Z,23.59
2022-09-01T16:15:02.159Z,23.71
2022-09-01T16:20:02.068Z,23.83
2022-09-01T16:25:02.046Z,23.96
2022-09-01T16:30:02.010Z,24.02
2022-09-01T16:35:02.144Z,24.08
2022-09-01T16:40:02.282Z,23.99
2022-09-01T16:45:01.909Z,23.94
2022-09-01T16:50:01.715Z,23.86
2022-09-01T16:55:02.018Z,23.79
2022-09-01T17:00:02.470Z,23.68
2022-09-01T17:05:02.150Z,23.47
2022-09-01T17:10:02.319Z,23.32
2022-09-01T17:15:02.495Z,23.2
2022-09-01T17:20:02.051Z,23
2022-09-01T17:25:06.929Z,22.79
2022-09-01T17:30:02.225Z,22.61
2022-09-01T17:35:02.398Z,22.19
2022-09-01T17:40:02.111Z,21.85
2022-09-01T17:45:02.031Z,21.55
2022-09-01T17:50:02.357Z,21.27
2022-09-01T17:55:02.138Z,20.85
2022-09-01T18:00:01.916Z,21.1
2022-09-01T18:05:07.368Z,21.17
2022-09-01T18:10:01.856Z,21.19
2022-09-01T18:15:02.594Z,21.07
2022-09-01T18:20:02.331Z,20.95
2022-09-01T18:25:02.174Z,20.35
2022-09-01T18:30:02.485Z,19.79
2022-09-01T18:35:02.474Z,19.48
2022-09-01T18:40:01.541Z,19.3
2022-09-01T18:45:01.348Z,19.44
2022-09-01T18:50:03.957Z,19.45
2022-09-01T18:55:01.483Z,19.5
2022-09-01T19:00:01.891Z,19.55
2022-09-01T19:05:01.479Z,19.54
2022-09-01T19:10:02.487Z,19.46
2022-09-01T19:15:02.111Z,19.38
2022-09-01T19:20:02.658Z,19.46
2022-09-01T19:25:02.597Z,19.51
2022-09-01T19:30:01.466Z,19.61
2022-09-01T19:35:02.388Z,19.59
2022-09-01T19:40:01.938Z,19.62
2022-09-01T19:45:07.017Z,19.69
2022-09-01T19:50:02.448Z,19.82
2022-09-01T19:55:01.912Z,20.14
2022-09-01T20:00:01.194Z,20.41
2022-09-01T20:05:01.459Z,20.7
2022-09-01T20:10:01.630Z,20.85
2022-09-01T20:15:01.515Z,21.02
2022-09-01T20:20:01.894Z,21.18
2022-09-01T20:25:02.107Z,21.21
2022-09-01T20:30:01.773Z,21.31
2022-09-01T20:35:01.902Z,21.09
2022-09-01T20:40:02.672Z,20.88
2022-09-01T20:45:01.810Z,20.81
2022-09-01T20:50:01.944Z,20.8
2022-09-01T20:55:02.776Z,20.74
2022-09-01T21:00:02.372Z,20.63
2022-09-01T21:05:01.286Z,20.55
2022-09-01T21:10:01.747Z,20.54
2022-09-01T21:15:01.537Z,20.46
2022-09-01T21:20:02.239Z,20.37
2022-09-01T21:25:02.132Z,20.27
2022-09-01T21:30:01.513Z,20.21
2022-09-01T21:35:01.609Z,20.15
2022-09-01T21:40:02.295Z,20.16
2022-09-01T21:45:01.231Z,20.15
2022-09-01T21:50:01.672Z,20.16
2022-09-01T21:55:01.669Z,20.24
2022-09-01T22:00:02.383Z,20.19
2022-09-01T22:05:02.308Z,20.19
2022-09-01T22:10:01.898Z,20.05
2022-09-01T22:15:01.966Z,20
2022-09-01T22:20:01.336Z,19.97
2022-09-01T22:25:01.537Z,19.88
2022-09-01T22:30:02.106Z,19.73
2022-09-01T22:35:01.697Z,19.57
2022-09-01T22:40:02.018Z,19.42
2022-09-01T22:45:01.844Z,19.31
2022-09-01T22:50:01.513Z,19.23
2022-09-01T22:55:01.932Z,19.14
2022-09-01T23:00:01.264Z,19.1
2022-09-01T23:05:02.089Z,19.03
2022-09-01T23:10:01.644Z,18.92
2022-09-01T23:15:01.802Z,18.87
2022-09-01T23:20:01.690Z,18.72
2022-09-01T23:25:01.486Z,18.65
2022-09-01T23:30:01.634Z,18.51
2022-09-01T23:35:01.265Z,18.36
2022-09-01T23:40:01.526Z,18.27
2022-09-01T23:45:01.334Z,18.13
2022-09-01T23:50:01.824Z,18.11
2022-09-01T23:55:01.991Z,18.05
